sensor_id;sensor_type;location;lat;lon;timestamp;P1;durP1;ratioP1;P2;durP2;ratioP2
26488;SDS011;14169;43.684;10.484;2022-12-07T00:00:49;27.73;;;22.13;;
26488;SDS011;14169;43.684;10.484;2022-12-07T00:03:15;27.48;;;20.88;;
26488;SDS011;14169;43.684;10.484;2022-12-07T00:05:40;22.95;;;20.60;;
26488;SDS011;14169;43.684;10.484;2022-12-07T00:08:06;24.88;;;22.08;;
26488;SDS011;14169;43.684;10.484;2022-12-07T00:10:33;24.38;;;21.05;;
26488;SDS011;14169;43.684;10.484;2022-12-07T00:12:59;25.73;;;21.58;;
26488;SDS011;14169;43.684;10.484;2022-12-07T00:15:24;28.67;;;21.73;;
26488;SDS011;14169;43.684;10.484;2022-12-07T00:17:51;23.50;;;21.17;;
26488;SDS011;14169;43.684;10.484;2022-12-07T00:20:16;25.85;;;23.10;;
26488;SDS011;14169;43.684;10.484;2022-12-07T00:22:41;23.23;;;21.08;;
26488;SDS011;14169;43.684;10.484;2022-12-07T00:25:07;23.25;;;20.92;;
26488;SDS011;14169;43.684;10.484;2022-12-07T00:27:32;24.45;;;21.98;;
26488;SDS011;14169;43.684;10.484;2022-12-07T00:29:58;27.20;;;21.17;;
26488;SDS011;14169;43.684;10.484;2022-12-07T00:32:23;23.98;;;20.65;;
26488;SDS011;14169;43.684;10.484;2022-12-07T00:34:49;25.73;;;21.65;;
26488;SDS011;14169;43.684;10.484;2022-12-07T00:37:14;26.30;;;22.27;;
26488;SDS011;14169;43.684;10.484;2022-12-07T00:39:39;25.75;;;20.73;;
26488;SDS011;14169;43.684;10.484;2022-12-07T00:42:05;25.13;;;20.73;;
26488;SDS011;14169;43.684;10.484;2022-12-07T00:44:30;23.98;;;21.60;;
26488;SDS011;14169;43.684;10.484;2022-12-07T00:46:56;22.63;;;20.33;;
26488;SDS011;14169;43.684;10.484;2022-12-07T00:49:21;22.83;;;20.45;;
26488;SDS011;14169;43.684;10.484;2022-12-07T00:51:50;22.98;;;20.67;;
26488;SDS011;14169;43.684;10.484;2022-12-07T00:54:15;23.50;;;21.10;;
26488;SDS011;14169;43.684;10.484;2022-12-07T00:56:40;25.83;;;21.70;;
26488;SDS011;14169;43.684;10.484;2022-12-07T00:59:06;23.73;;;20.70;;
26488;SDS011;14169;43.684;10.484;2022-12-07T01:01:33;21.00;;;19.10;;
26488;SDS011;14169;43.684;10.484;2022-12-07T01:04:01;23.65;;;20.35;;
26488;SDS011;14169;43.684;10.484;2022-12-07T01:06:27;23.10;;;20.65;;
26488;SDS011;14169;43.684;10.484;2022-12-07T01:08:54;22.83;;;19.65;;
26488;SDS011;14169;43.684;10.484;2022-12-07T01:11:20;22.40;;;20.27;;
26488;SDS011;14169;43.684;10.484;2022-12-07T01:13:51;22.67;;;20.42;;
26488;SDS011;14169;43.684;10.484;2022-12-07T01:16:18;23.17;;;20.48;;
26488;SDS011;14169;43.684;10.484;2022-12-07T01:18:46;22.30;;;19.88;;
26488;SDS011;14169;43.684;10.484;2022-12-07T01:23:40;21.83;;;19.80;;
26488;SDS011;14169;43.684;10.484;2022-12-07T01:26:07;21.88;;;19.63;;
26488;SDS011;14169;43.684;10.484;2022-12-07T01:28:35;23.15;;;20.67;;
26488;SDS011;14169;43.684;10.484;2022-12-07T01:31:02;22.85;;;20.60;;
26488;SDS011;14169;43.684;10.484;2022-12-07T01:33:33;22.05;;;20.00;;
26488;SDS011;14169;43.684;10.484;2022-12-07T01:36:02;28.75;;;22.27;;
26488;SDS011;14169;43.684;10.484;2022-12-07T01:38:27;25.80;;;21.05;;
26488;SDS011;14169;43.684;10.484;2022-12-07T01:40:54;24.25;;;21.73;;
26488;SDS011;14169;43.684;10.484;2022-12-07T01:43:21;23.70;;;21.20;;
26488;SDS011;14169;43.684;10.484;2022-12-07T01:45:48;22.25;;;20.02;;
26488;SDS011;14169;43.684;10.484;2022-12-07T01:48:14;22.02;;;19.92;;
26488;SDS011;14169;43.684;10.484;2022-12-07T01:50:43;23.35;;;21.00;;
26488;SDS011;14169;43.684;10.484;2022-12-07T01:53:11;21.42;;;19.30;;
26488;SDS011;14169;43.684;10.484;2022-12-07T01:55:38;21.25;;;19.20;;
26488;SDS011;14169;43.684;10.484;2022-12-07T01:58:07;24.25;;;21.00;;
26488;SDS011;14169;43.684;10.484;2022-12-07T02:00:34;23.75;;;19.30;;
26488;SDS011;14169;43.684;10.484;2022-12-07T02:03:08;24.80;;;19.77;;
26488;SDS011;14169;43.684;10.484;2022-12-07T02:05:37;20.98;;;19.08;;
26488;SDS011;14169;43.684;10.484;2022-12-07T02:08:05;22.20;;;20.13;;
26488;SDS011;14169;43.684;10.484;2022-12-07T02:10:31;25.23;;;20.30;;
26488;SDS011;14169;43.684;10.484;2022-12-07T02:29:46;23.73;;;19.52;;
26488;SDS011;14169;43.684;10.484;2022-12-07T02:35:23;26.35;;;18.77;;
26488;SDS011;14169;43.684;10.484;2022-12-07T02:40:57;21.35;;;19.27;;
26488;SDS011;14169;43.684;10.484;2022-12-07T02:43:35;21.10;;;19.02;;
26488;SDS011;14169;43.684;10.484;2022-12-07T02:46:09;22.13;;;19.85;;
26488;SDS011;14169;43.684;10.484;2022-12-07T02:48:38;22.20;;;19.23;;
26488;SDS011;14169;43.684;10.484;2022-12-07T02:51:06;21.25;;;19.45;;
26488;SDS011;14169;43.684;10.484;2022-12-07T02:56:00;20.45;;;18.55;;
26488;SDS011;14169;43.684;10.484;2022-12-07T03:01:50;20.92;;;19.02;;
26488;SDS011;14169;43.684;10.484;2022-12-07T03:07:18;21.08;;;19.38;;
26488;SDS011;14169;43.684;10.484;2022-12-07T03:12:28;20.85;;;18.75;;
26488;SDS011;14169;43.684;10.484;2022-12-07T03:15:01;21.25;;;19.35;;
26488;SDS011;14169;43.684;10.484;2022-12-07T03:17:36;21.38;;;19.20;;
26488;SDS011;14169;43.684;10.484;2022-12-07T03:20:07;22.33;;;20.02;;
26488;SDS011;14169;43.684;10.484;2022-12-07T03:22:36;20.80;;;18.73;;
26488;SDS011;14169;43.684;10.484;2022-12-07T03:25:08;22.15;;;19.90;;
26488;SDS011;14169;43.684;10.484;2022-12-07T03:27:39;19.95;;;18.20;;
26488;SDS011;14169;43.684;10.484;2022-12-07T03:30:13;23.50;;;20.92;;
26488;SDS011;14169;43.684;10.484;2022-12-07T03:32:47;21.15;;;19.02;;
26488;SDS011;14169;43.684;10.484;2022-12-07T03:35:18;20.38;;;18.83;;
26488;SDS011;14169;43.684;10.484;2022-12-07T03:40:40;22.70;;;20.52;;
26488;SDS011;14169;43.684;10.484;2022-12-07T03:43:14;21.70;;;19.70;;
26488;SDS011;14169;43.684;10.484;2022-12-07T03:45:42;21.15;;;19.23;;
26488;SDS011;14169;43.684;10.484;2022-12-07T03:48:27;21.83;;;18.20;;
26488;SDS011;14169;43.684;10.484;2022-12-07T03:51:07;22.45;;;19.80;;
26488;SDS011;14169;43.684;10.484;2022-12-07T03:53:36;25.55;;;19.92;;
26488;SDS011;14169;43.684;10.484;2022-12-07T03:56:09;21.50;;;19.73;;
26488;SDS011;14169;43.684;10.484;2022-12-07T03:58:36;20.90;;;19.00;;
26488;SDS011;14169;43.684;10.484;2022-12-07T04:01:04;22.00;;;19.75;;
26488;SDS011;14169;43.684;10.484;2022-12-07T04:03:30;20.95;;;18.98;;
26488;SDS011;14169;43.684;10.484;2022-12-07T04:05:55;21.55;;;19.75;;
26488;SDS011;14169;43.684;10.484;2022-12-07T04:08:21;21.17;;;19.13;;
26488;SDS011;14169;43.684;10.484;2022-12-07T04:10:46;22.25;;;19.95;;
26488;SDS011;14169;43.684;10.484;2022-12-07T04:13:12;20.00;;;17.73;;
26488;SDS011;14169;43.684;10.484;2022-12-07T04:15:37;22.10;;;19.67;;
26488;SDS011;14169;43.684;10.484;2022-12-07T04:18:02;22.00;;;19.80;;
26488;SDS011;14169;43.684;10.484;2022-12-07T04:20:28;22.23;;;20.00;;
26488;SDS011;14169;43.684;10.484;2022-12-07T04:22:53;22.27;;;20.20;;
26488;SDS011;14169;43.684;10.484;2022-12-07T04:25:19;20.20;;;18.30;;
26488;SDS011;14169;43.684;10.484;2022-12-07T04:27:44;23.13;;;20.67;;
26488;SDS011;14169;43.684;10.484;2022-12-07T04:30:10;20.88;;;19.08;;
26488;SDS011;14169;43.684;10.484;2022-12-07T04:32:35;20.63;;;18.42;;
26488;SDS011;14169;43.684;10.484;2022-12-07T04:35:02;21.85;;;19.73;;
26488;SDS011;14169;43.684;10.484;2022-12-07T04:37:27;21.65;;;19.00;;
26488;SDS011;14169;43.684;10.484;2022-12-07T04:39:53;21.05;;;19.00;;
26488;SDS011;14169;43.684;10.484;2022-12-07T04:42:18;21.88;;;19.63;;
26488;SDS011;14169;43.684;10.484;2022-12-07T04:44:44;33.90;;;30.38;;
26488;SDS011;14169;43.684;10.484;2022-12-07T04:47:09;31.60;;;27.35;;
26488;SDS011;14169;43.684;10.484;2022-12-07T04:49:35;27.80;;;24.65;;
26488;SDS011;14169;43.684;10.484;2022-12-07T04:52:00;26.45;;;23.73;;
26488;SDS011;14169;43.684;10.484;2022-12-07T04:54:26;26.70;;;23.85;;
26488;SDS011;14169;43.684;10.484;2022-12-07T04:56:51;26.55;;;24.13;;
26488;SDS011;14169;43.684;10.484;2022-12-07T04:59:17;23.50;;;21.13;;
26488;SDS011;14169;43.684;10.484;2022-12-07T05:01:42;23.63;;;21.42;;
26488;SDS011;14169;43.684;10.484;2022-12-07T05:04:08;28.75;;;22.48;;
26488;SDS011;14169;43.684;10.484;2022-12-07T05:06:34;23.20;;;20.77;;
26488;SDS011;14169;43.684;10.484;2022-12-07T05:08:59;22.83;;;20.10;;
26488;SDS011;14169;43.684;10.484;2022-12-07T05:11:25;23.95;;;21.70;;
26488;SDS011;14169;43.684;10.484;2022-12-07T05:14:13;22.60;;;20.42;;
26488;SDS011;14169;43.684;10.484;2022-12-07T05:16:40;26.27;;;22.27;;
26488;SDS011;14169;43.684;10.484;2022-12-07T05:19:07;21.60;;;19.63;;
26488;SDS011;14169;43.684;10.484;2022-12-07T05:21:32;24.45;;;19.83;;
26488;SDS011;14169;43.684;10.484;2022-12-07T05:23:58;23.77;;;21.25;;
26488;SDS011;14169;43.684;10.484;2022-12-07T05:26:23;21.30;;;19.15;;
26488;SDS011;14169;43.684;10.484;2022-12-07T05:28:53;20.88;;;18.67;;
26488;SDS011;14169;43.684;10.484;2022-12-07T05:31:19;21.58;;;19.05;;
26488;SDS011;14169;43.684;10.484;2022-12-07T05:33:45;18.42;;;17.02;;
26488;SDS011;14169;43.684;10.484;2022-12-07T05:36:12;18.80;;;17.30;;
26488;SDS011;14169;43.684;10.484;2022-12-07T05:38:37;20.08;;;18.55;;
26488;SDS011;14169;43.684;10.484;2022-12-07T05:41:03;19.23;;;17.63;;
26488;SDS011;14169;43.684;10.484;2022-12-07T05:43:31;19.23;;;17.70;;
26488;SDS011;14169;43.684;10.484;2022-12-07T05:45:56;18.98;;;17.25;;
26488;SDS011;14169;43.684;10.484;2022-12-07T05:48:22;28.27;;;18.15;;
26488;SDS011;14169;43.684;10.484;2022-12-07T05:50:48;17.55;;;16.02;;
26488;SDS011;14169;43.684;10.484;2022-12-07T05:53:15;17.65;;;16.08;;
26488;SDS011;14169;43.684;10.484;2022-12-07T05:55:40;20.35;;;18.33;;
26488;SDS011;14169;43.684;10.484;2022-12-07T05:58:06;17.63;;;16.02;;
26488;SDS011;14169;43.684;10.484;2022-12-07T06:00:50;18.10;;;16.50;;
26488;SDS011;14169;43.684;10.484;2022-12-07T06:03:15;20.98;;;17.88;;
26488;SDS011;14169;43.684;10.484;2022-12-07T06:05:41;21.88;;;17.42;;
26488;SDS011;14169;43.684;10.484;2022-12-07T06:08:06;57.30;;;17.88;;
26488;SDS011;14169;43.684;10.484;2022-12-07T06:10:32;135.13;;;20.38;;
26488;SDS011;14169;43.684;10.484;2022-12-07T06:12:57;73.93;;;20.17;;
26488;SDS011;14169;43.684;10.484;2022-12-07T06:15:23;61.40;;;18.55;;
26488;SDS011;14169;43.684;10.484;2022-12-07T06:17:48;39.55;;;18.33;;
26488;SDS011;14169;43.684;10.484;2022-12-07T06:20:14;41.17;;;18.48;;
26488;SDS011;14169;43.684;10.484;2022-12-07T06:22:39;27.23;;;18.58;;
26488;SDS011;14169;43.684;10.484;2022-12-07T06:25:05;53.63;;;19.02;;
26488;SDS011;14169;43.684;10.484;2022-12-07T06:27:31;29.45;;;18.30;;
26488;SDS011;14169;43.684;10.484;2022-12-07T06:29:57;29.25;;;17.77;;
26488;SDS011;14169;43.684;10.484;2022-12-07T06:32:23;58.70;;;18.73;;
26488;SDS011;14169;43.684;10.484;2022-12-07T06:34:49;39.58;;;17.98;;
26488;SDS011;14169;43.684;10.484;2022-12-07T06:37:14;58.58;;;19.58;;
26488;SDS011;14169;43.684;10.484;2022-12-07T06:39:39;31.13;;;21.42;;
26488;SDS011;14169;43.684;10.484;2022-12-07T06:42:05;53.80;;;20.50;;
26488;SDS011;14169;43.684;10.484;2022-12-07T06:44:30;42.55;;;21.98;;
26488;SDS011;14169;43.684;10.484;2022-12-07T06:46:56;58.63;;;26.02;;
26488;SDS011;14169;43.684;10.484;2022-12-07T06:49:21;48.03;;;23.25;;
26488;SDS011;14169;43.684;10.484;2022-12-07T06:51:47;44.35;;;24.02;;
26488;SDS011;14169;43.684;10.484;2022-12-07T06:54:13;77.93;;;24.77;;
26488;SDS011;14169;43.684;10.484;2022-12-07T06:56:39;49.63;;;24.45;;
26488;SDS011;14169;43.684;10.484;2022-12-07T06:59:05;63.38;;;24.90;;
26488;SDS011;14169;43.684;10.484;2022-12-07T07:01:31;77.63;;;25.17;;
26488;SDS011;14169;43.684;10.484;2022-12-07T07:03:58;43.35;;;25.08;;
26488;SDS011;14169;43.684;10.484;2022-12-07T07:06:23;43.60;;;24.95;;
26488;SDS011;14169;43.684;10.484;2022-12-07T07:08:49;45.85;;;24.60;;
26488;SDS011;14169;43.684;10.484;2022-12-07T07:11:14;32.85;;;23.05;;
26488;SDS011;14169;43.684;10.484;2022-12-07T07:13:40;28.98;;;23.13;;
26488;SDS011;14169;43.684;10.484;2022-12-07T07:16:06;31.30;;;23.70;;
26488;SDS011;14169;43.684;10.484;2022-12-07T07:18:32;29.17;;;23.70;;
26488;SDS011;14169;43.684;10.484;2022-12-07T07:20:58;28.25;;;23.52;;
26488;SDS011;14169;43.684;10.484;2022-12-07T07:23:23;25.05;;;22.02;;
26488;SDS011;14169;43.684;10.484;2022-12-07T07:25:49;34.75;;;23.58;;
26488;SDS011;14169;43.684;10.484;2022-12-07T07:28:15;37.78;;;24.83;;
26488;SDS011;14169;43.684;10.484;2022-12-07T07:30:41;51.58;;;27.05;;
26488;SDS011;14169;43.684;10.484;2022-12-07T07:33:06;89.15;;;28.80;;
26488;SDS011;14169;43.684;10.484;2022-12-07T07:35:32;139.75;;;30.75;;
26488;SDS011;14169;43.684;10.484;2022-12-07T07:37:59;127.78;;;29.50;;
26488;SDS011;14169;43.684;10.484;2022-12-07T07:40:25;100.72;;;28.83;;
26488;SDS011;14169;43.684;10.484;2022-12-07T07:42:51;119.68;;;30.25;;
26488;SDS011;14169;43.684;10.484;2022-12-07T07:45:18;123.40;;;30.23;;
26488;SDS011;14169;43.684;10.484;2022-12-07T07:47:44;81.72;;;28.70;;
26488;SDS011;14169;43.684;10.484;2022-12-07T07:50:10;164.15;;;30.10;;
26488;SDS011;14169;43.684;10.484;2022-12-07T07:52:36;91.93;;;28.98;;
26488;SDS011;14169;43.684;10.484;2022-12-07T07:55:01;63.90;;;28.15;;
26488;SDS011;14169;43.684;10.484;2022-12-07T07:57:27;95.00;;;27.50;;
26488;SDS011;14169;43.684;10.484;2022-12-07T07:59:53;69.85;;;25.60;;
26488;SDS011;14169;43.684;10.484;2022-12-07T08:02:19;77.15;;;24.90;;
26488;SDS011;14169;43.684;10.484;2022-12-07T08:04:45;87.07;;;25.92;;
26488;SDS011;14169;43.684;10.484;2022-12-07T08:07:12;92.15;;;26.83;;
26488;SDS011;14169;43.684;10.484;2022-12-07T08:09:38;54.42;;;24.83;;
26488;SDS011;14169;43.684;10.484;2022-12-07T08:12:03;75.43;;;26.45;;
26488;SDS011;14169;43.684;10.484;2022-12-07T08:14:29;51.20;;;25.42;;
26488;SDS011;14169;43.684;10.484;2022-12-07T08:16:55;66.22;;;26.38;;
26488;SDS011;14169;43.684;10.484;2022-12-07T08:19:20;49.88;;;24.30;;
26488;SDS011;14169;43.684;10.484;2022-12-07T08:21:46;40.28;;;24.40;;
26488;SDS011;14169;43.684;10.484;2022-12-07T08:24:12;37.78;;;25.35;;
26488;SDS011;14169;43.684;10.484;2022-12-07T08:26:39;61.53;;;24.65;;
26488;SDS011;14169;43.684;10.484;2022-12-07T08:29:04;56.38;;;25.98;;
26488;SDS011;14169;43.684;10.484;2022-12-07T08:31:30;47.80;;;25.30;;
26488;SDS011;14169;43.684;10.484;2022-12-07T08:33:55;46.53;;;25.00;;
26488;SDS011;14169;43.684;10.484;2022-12-07T08:36:22;32.17;;;23.95;;
26488;SDS011;14169;43.684;10.484;2022-12-07T08:38:48;43.03;;;24.95;;
26488;SDS011;14169;43.684;10.484;2022-12-07T08:41:13;39.20;;;26.63;;
26488;SDS011;14169;43.684;10.484;2022-12-07T08:43:39;39.95;;;27.08;;
26488;SDS011;14169;43.684;10.484;2022-12-07T08:49:01;40.67;;;25.75;;
26488;SDS011;14169;43.684;10.484;2022-12-07T08:51:28;40.17;;;23.65;;
26488;SDS011;14169;43.684;10.484;2022-12-07T08:53:54;31.77;;;23.58;;
26488;SDS011;14169;43.684;10.484;2022-12-07T08:56:22;59.75;;;23.98;;
26488;SDS011;14169;43.684;10.484;2022-12-07T08:58:48;64.28;;;22.10;;
26488;SDS011;14169;43.684;10.484;2022-12-07T09:01:13;69.47;;;22.15;;
26488;SDS011;14169;43.684;10.484;2022-12-07T09:03:39;38.10;;;21.08;;
26488;SDS011;14169;43.684;10.484;2022-12-07T09:06:05;71.78;;;23.08;;
26488;SDS011;14169;43.684;10.484;2022-12-07T09:08:32;86.57;;;25.20;;
26488;SDS011;14169;43.684;10.484;2022-12-07T09:11:01;97.45;;;26.65;;
26488;SDS011;14169;43.684;10.484;2022-12-07T09:13:27;71.75;;;25.40;;
26488;SDS011;14169;43.684;10.484;2022-12-07T09:15:52;100.22;;;27.88;;
26488;SDS011;14169;43.684;10.484;2022-12-07T09:18:18;63.72;;;27.45;;
26488;SDS011;14169;43.684;10.484;2022-12-07T09:20:43;76.55;;;26.77;;
26488;SDS011;14169;43.684;10.484;2022-12-07T09:23:09;82.13;;;27.13;;
26488;SDS011;14169;43.684;10.484;2022-12-07T09:25:34;78.68;;;27.58;;
26488;SDS011;14169;43.684;10.484;2022-12-07T09:28:00;65.68;;;26.75;;
26488;SDS011;14169;43.684;10.484;2022-12-07T09:30:26;76.55;;;28.02;;
26488;SDS011;14169;43.684;10.484;2022-12-07T09:32:52;71.95;;;28.23;;
26488;SDS011;14169;43.684;10.484;2022-12-07T09:35:19;67.07;;;26.88;;
26488;SDS011;14169;43.684;10.484;2022-12-07T09:37:44;63.47;;;26.27;;
26488;SDS011;14169;43.684;10.484;2022-12-07T09:40:10;64.03;;;26.88;;
26488;SDS011;14169;43.684;10.484;2022-12-07T09:42:37;63.22;;;25.38;;
26488;SDS011;14169;43.684;10.484;2022-12-07T09:45:17;62.28;;;25.35;;
26488;SDS011;14169;43.684;10.484;2022-12-07T09:47:46;49.95;;;23.58;;
26488;SDS011;14169;43.684;10.484;2022-12-07T09:50:29;50.92;;;24.33;;
26488;SDS011;14169;43.684;10.484;2022-12-07T09:53:00;41.70;;;21.00;;
26488;SDS011;14169;43.684;10.484;2022-12-07T09:55:48;33.80;;;19.60;;
26488;SDS011;14169;43.684;10.484;2022-12-07T09:58:26;28.27;;;18.23;;
26488;SDS011;14169;43.684;10.484;2022-12-07T10:03:32;27.13;;;16.52;;
26488;SDS011;14169;43.684;10.484;2022-12-07T10:05:59;18.10;;;15.93;;
26488;SDS011;14169;43.684;10.484;2022-12-07T10:08:25;23.23;;;14.88;;
26488;SDS011;14169;43.684;10.484;2022-12-07T10:10:52;25.85;;;16.83;;
26488;SDS011;14169;43.684;10.484;2022-12-07T10:16:03;36.03;;;19.40;;
26488;SDS011;14169;43.684;10.484;2022-12-07T10:26:36;18.85;;;14.63;;
26488;SDS011;14169;43.684;10.484;2022-12-07T10:32:21;20.95;;;14.57;;
26488;SDS011;14169;43.684;10.484;2022-12-07T10:35:15;14.25;;;12.63;;
26488;SDS011;14169;43.684;10.484;2022-12-07T10:37:45;14.32;;;11.57;;
26488;SDS011;14169;43.684;10.484;2022-12-07T10:43:38;8.52;;;7.50;;
26488;SDS011;14169;43.684;10.484;2022-12-07T11:00:00;4.72;;;4.30;;
26488;SDS011;14169;43.684;10.484;2022-12-07T11:10:18;1.98;;;1.30;;
26488;SDS011;14169;43.684;10.484;2022-12-07T11:18:26;1.70;;;0.98;;
26488;SDS011;14169;43.684;10.484;2022-12-07T11:23:45;2.03;;;0.93;;
26488;SDS011;14169;43.684;10.484;2022-12-07T11:29:09;2.75;;;1.58;;
26488;SDS011;14169;43.684;10.484;2022-12-07T11:37:18;2.47;;;1.23;;
26488;SDS011;14169;43.684;10.484;2022-12-07T11:39:50;3.28;;;1.63;;
26488;SDS011;14169;43.684;10.484;2022-12-07T11:42:21;1.70;;;1.25;;
26488;SDS011;14169;43.684;10.484;2022-12-07T11:45:00;1.80;;;1.50;;
26488;SDS011;14169;43.684;10.484;2022-12-07T12:00:54;3.00;;;1.70;;
26488;SDS011;14169;43.684;10.484;2022-12-07T12:03:30;3.00;;;2.40;;
26488;SDS011;14169;43.684;10.484;2022-12-07T12:06:01;2.20;;;1.60;;
26488;SDS011;14169;43.684;10.484;2022-12-07T12:08:34;1.60;;;1.27;;
26488;SDS011;14169;43.684;10.484;2022-12-07T12:21:57;2.65;;;1.88;;
26488;SDS011;14169;43.684;10.484;2022-12-07T12:24:31;3.83;;;1.58;;
26488;SDS011;14169;43.684;10.484;2022-12-07T12:27:02;1.73;;;1.30;;
26488;SDS011;14169;43.684;10.484;2022-12-07T12:32:18;1.98;;;1.42;;
26488;SDS011;14169;43.684;10.484;2022-12-07T12:42:52;1.85;;;1.30;;
26488;SDS011;14169;43.684;10.484;2022-12-07T12:45:24;1.92;;;1.50;;
26488;SDS011;14169;43.684;10.484;2022-12-07T12:47:57;2.20;;;1.33;;
26488;SDS011;14169;43.684;10.484;2022-12-07T12:50:28;2.40;;;1.95;;
26488;SDS011;14169;43.684;10.484;2022-12-07T12:55:29;4.80;;;1.88;;
26488;SDS011;14169;43.684;10.484;2022-12-07T13:00:42;2.13;;;1.42;;
26488;SDS011;14169;43.684;10.484;2022-12-07T13:03:16;1.75;;;1.33;;
26488;SDS011;14169;43.684;10.484;2022-12-07T13:05:48;1.60;;;1.50;;
26488;SDS011;14169;43.684;10.484;2022-12-07T13:08:49;2.10;;;1.25;;
26488;SDS011;14169;43.684;10.484;2022-12-07T13:11:20;1.80;;;1.02;;
26488;SDS011;14169;43.684;10.484;2022-12-07T13:13:50;2.25;;;1.40;;
26488;SDS011;14169;43.684;10.484;2022-12-07T13:19:01;2.65;;;1.30;;
26488;SDS011;14169;43.684;10.484;2022-12-07T13:23:56;2.22;;;1.30;;
26488;SDS011;14169;43.684;10.484;2022-12-07T13:29:15;3.38;;;1.17;;
26488;SDS011;14169;43.684;10.484;2022-12-07T13:31:46;1.45;;;1.15;;
26488;SDS011;14169;43.684;10.484;2022-12-07T13:36:59;1.38;;;1.05;;
26488;SDS011;14169;43.684;10.484;2022-12-07T13:39:26;2.33;;;1.00;;
26488;SDS011;14169;43.684;10.484;2022-12-07T13:41:53;1.42;;;1.15;;
26488;SDS011;14169;43.684;10.484;2022-12-07T13:44:24;1.65;;;1.30;;
26488;SDS011;14169;43.684;10.484;2022-12-07T13:49:25;1.85;;;0.90;;
26488;SDS011;14169;43.684;10.484;2022-12-07T13:51:53;0.90;;;0.70;;
26488;SDS011;14169;43.684;10.484;2022-12-07T13:54:21;1.33;;;1.00;;
26488;SDS011;14169;43.684;10.484;2022-12-07T13:56:48;1.10;;;0.80;;
26488;SDS011;14169;43.684;10.484;2022-12-07T13:59:20;4.55;;;1.00;;
26488;SDS011;14169;43.684;10.484;2022-12-07T14:01:49;3.75;;;1.38;;
26488;SDS011;14169;43.684;10.484;2022-12-07T14:04:16;3.08;;;1.00;;
26488;SDS011;14169;43.684;10.484;2022-12-07T14:06:50;1.42;;;1.00;;
26488;SDS011;14169;43.684;10.484;2022-12-07T14:09:17;1.50;;;0.98;;
26488;SDS011;14169;43.684;10.484;2022-12-07T14:11:47;1.63;;;1.15;;
26488;SDS011;14169;43.684;10.484;2022-12-07T14:14:15;1.92;;;1.30;;
26488;SDS011;14169;43.684;10.484;2022-12-07T14:16:54;1.52;;;1.00;;
26488;SDS011;14169;43.684;10.484;2022-12-07T14:19:43;2.15;;;1.20;;
26488;SDS011;14169;43.684;10.484;2022-12-07T14:24:50;1.70;;;1.10;;
26488;SDS011;14169;43.684;10.484;2022-12-07T14:27:23;1.58;;;1.00;;
26488;SDS011;14169;43.684;10.484;2022-12-07T14:29:55;1.80;;;1.27;;
26488;SDS011;14169;43.684;10.484;2022-12-07T14:32:25;2.58;;;1.10;;
26488;SDS011;14169;43.684;10.484;2022-12-07T14:37:41;2.75;;;1.42;;
26488;SDS011;14169;43.684;10.484;2022-12-07T14:40:18;1.75;;;1.13;;
26488;SDS011;14169;43.684;10.484;2022-12-07T14:42:46;1.88;;;1.35;;
26488;SDS011;14169;43.684;10.484;2022-12-07T14:45:14;1.90;;;1.33;;
26488;SDS011;14169;43.684;10.484;2022-12-07T14:47:42;2.42;;;2.22;;
26488;SDS011;14169;43.684;10.484;2022-12-07T14:50:11;2.70;;;1.73;;
26488;SDS011;14169;43.684;10.484;2022-12-07T14:52:37;1.92;;;1.40;;
26488;SDS011;14169;43.684;10.484;2022-12-07T14:55:08;2.65;;;1.52;;
26488;SDS011;14169;43.684;10.484;2022-12-07T14:57:38;1.85;;;1.55;;
26488;SDS011;14169;43.684;10.484;2022-12-07T15:00:04;2.20;;;1.38;;
26488;SDS011;14169;43.684;10.484;2022-12-07T15:02:30;2.92;;;1.23;;
26488;SDS011;14169;43.684;10.484;2022-12-07T15:04:55;1.85;;;1.30;;
26488;SDS011;14169;43.684;10.484;2022-12-07T15:07:21;4.80;;;2.63;;
26488;SDS011;14169;43.684;10.484;2022-12-07T15:09:48;3.78;;;2.00;;
26488;SDS011;14169;43.684;10.484;2022-12-07T15:12:13;2.42;;;1.80;;
26488;SDS011;14169;43.684;10.484;2022-12-07T15:14:39;2.47;;;1.70;;
26488;SDS011;14169;43.684;10.484;2022-12-07T15:17:04;2.90;;;1.52;;
26488;SDS011;14169;43.684;10.484;2022-12-07T15:19:30;2.38;;;1.40;;
26488;SDS011;14169;43.684;10.484;2022-12-07T15:21:55;2.85;;;1.70;;
26488;SDS011;14169;43.684;10.484;2022-12-07T15:24:21;3.15;;;1.63;;
26488;SDS011;14169;43.684;10.484;2022-12-07T15:26:48;4.82;;;1.70;;
26488;SDS011;14169;43.684;10.484;2022-12-07T15:29:14;4.93;;;1.67;;
26488;SDS011;14169;43.684;10.484;2022-12-07T15:31:40;4.63;;;2.42;;
26488;SDS011;14169;43.684;10.484;2022-12-07T15:34:06;2.60;;;2.30;;
26488;SDS011;14169;43.684;10.484;2022-12-07T15:36:32;2.85;;;2.25;;
26488;SDS011;14169;43.684;10.484;2022-12-07T15:38:58;5.63;;;4.43;;
26488;SDS011;14169;43.684;10.484;2022-12-07T15:41:24;5.10;;;3.55;;
26488;SDS011;14169;43.684;10.484;2022-12-07T15:43:51;5.38;;;3.72;;
26488;SDS011;14169;43.684;10.484;2022-12-07T15:46:36;5.35;;;2.72;;
26488;SDS011;14169;43.684;10.484;2022-12-07T15:49:04;5.15;;;2.47;;
26488;SDS011;14169;43.684;10.484;2022-12-07T15:51:33;2.88;;;1.95;;
26488;SDS011;14169;43.684;10.484;2022-12-07T15:53:58;4.15;;;2.60;;
26488;SDS011;14169;43.684;10.484;2022-12-07T15:56:24;9.68;;;3.08;;
26488;SDS011;14169;43.684;10.484;2022-12-07T15:58:49;7.38;;;3.63;;
26488;SDS011;14169;43.684;10.484;2022-12-07T16:01:16;7.85;;;4.28;;
26488;SDS011;14169;43.684;10.484;2022-12-07T16:03:43;8.02;;;4.38;;
26488;SDS011;14169;43.684;10.484;2022-12-07T16:06:09;9.50;;;3.80;;
26488;SDS011;14169;43.684;10.484;2022-12-07T16:08:35;8.52;;;3.88;;
26488;SDS011;14169;43.684;10.484;2022-12-07T16:11:04;5.15;;;4.65;;
26488;SDS011;14169;43.684;10.484;2022-12-07T16:13:30;5.25;;;3.95;;
26488;SDS011;14169;43.684;10.484;2022-12-07T16:15:56;6.93;;;5.28;;
26488;SDS011;14169;43.684;10.484;2022-12-07T16:18:21;6.72;;;6.10;;
26488;SDS011;14169;43.684;10.484;2022-12-07T16:20:49;12.75;;;7.82;;
26488;SDS011;14169;43.684;10.484;2022-12-07T16:23:15;12.38;;;8.93;;
26488;SDS011;14169;43.684;10.484;2022-12-07T16:25:40;14.45;;;10.45;;
26488;SDS011;14169;43.684;10.484;2022-12-07T16:28:06;15.98;;;11.45;;
26488;SDS011;14169;43.684;10.484;2022-12-07T16:30:32;10.15;;;9.15;;
26488;SDS011;14169;43.684;10.484;2022-12-07T16:32:58;13.10;;;8.93;;
26488;SDS011;14169;43.684;10.484;2022-12-07T16:35:24;16.15;;;14.00;;
26488;SDS011;14169;43.684;10.484;2022-12-07T16:37:49;24.40;;;17.70;;
26488;SDS011;14169;43.684;10.484;2022-12-07T16:40:14;20.63;;;16.95;;
26488;SDS011;14169;43.684;10.484;2022-12-07T16:42:40;14.23;;;12.40;;
26488;SDS011;14169;43.684;10.484;2022-12-07T16:45:05;15.43;;;12.75;;
26488;SDS011;14169;43.684;10.484;2022-12-07T16:47:31;13.73;;;12.35;;
26488;SDS011;14169;43.684;10.484;2022-12-07T16:49:56;11.43;;;10.13;;
26488;SDS011;14169;43.684;10.484;2022-12-07T16:52:22;14.80;;;13.50;;
26488;SDS011;14169;43.684;10.484;2022-12-07T16:54:48;15.93;;;14.10;;
26488;SDS011;14169;43.684;10.484;2022-12-07T16:57:15;11.95;;;10.57;;
26488;SDS011;14169;43.684;10.484;2022-12-07T16:59:41;15.18;;;12.00;;